createdAt,value
2016-02-06T00:00:53.282Z,6.33
2016-02-06T00:01:53.318Z,6.31
2016-02-06T00:02:53.321Z,6.31
2016-02-06T00:03:53.292Z,6.18
2016-02-06T00:04:53.279Z,6.18
2016-02-06T00:05:53.296Z,6.3
2016-02-06T00:06:53.300Z,6.17
2016-02-06T00:07:53.274Z,6.3
2016-02-06T00:08:53.293Z,6.25
2016-02-06T00:09:53.279Z,6.18
2016-02-06T00:10:53.282Z,6.15
2016-02-06T00:11:53.284Z,6.18
2016-02-06T00:12:53.272Z,6.34
2016-02-06T00:13:53.275Z,6.25
2016-02-06T00:14:53.294Z,6.21
2016-02-06T00:15:53.266Z,6.22
2016-02-06T00:16:53.269Z,6.22
2016-02-06T00:17:53.286Z,6.18
2016-02-06T00:18:53.258Z,6.17
2016-02-06T00:19:53.276Z,6.12
2016-02-06T00:20:53.265Z,6.15
2016-02-06T00:21:53.251Z,6.15
2016-02-06T00:22:53.254Z,6.15
2016-02-06T00:23:53.554Z,6.09
2016-02-06T00:24:53.260Z,6.06
2016-02-06T00:25:53.247Z,6.03
2016-02-06T00:26:53.235Z,6.09
2016-02-06T00:27:53.237Z,6.04
2016-02-06T00:28:53.240Z,6.08
2016-02-06T00:29:53.242Z,5.99
2016-02-06T00:30:53.246Z,5.99
2016-02-06T00:31:53.233Z,6.01
2016-02-06T00:32:53.236Z,5.99
2016-02-06T00:33:53.259Z,5.96
2016-02-06T00:34:53.075Z,5.93
2016-02-06T00:35:53.234Z,5.91
2016-02-06T00:36:53.237Z,5.93
2016-02-06T00:37:53.255Z,5.9
2016-02-06T00:38:53.227Z,5.94
2016-02-06T00:39:53.229Z,5.79
2016-02-06T00:40:53.232Z,5.93
2016-02-06T00:41:53.234Z,5.82
2016-02-06T00:42:53.207Z,5.85
2016-02-06T00:43:53.209Z,5.83
2016-02-06T00:44:53.212Z,5.86
2016-02-06T00:45:53.202Z,5.76
2016-02-06T00:46:53.221Z,5.81
2016-02-06T00:47:53.255Z,5.75
2016-02-06T00:48:53.210Z,5.81
2016-02-06T00:49:53.198Z,5.75
2016-02-06T00:50:53.201Z,5.76
2016-02-06T00:51:53.187Z,5.74
2016-02-06T00:52:53.190Z,5.74
2016-02-06T00:53:53.194Z,5.76
2016-02-06T00:54:53.212Z,5.68
2016-02-06T00:55:53.183Z,5.72
2016-02-06T00:56:53.186Z,5.72
2016-02-06T00:57:53.173Z,5.65
2016-02-06T00:58:53.191Z,5.71
2016-02-06T00:59:53.163Z,5.71
2016-02-06T01:00:53.165Z,5.71
2016-02-06T01:01:53.168Z,5.71
2016-02-06T01:02:53.483Z,5.68
2016-02-06T01:03:53.163Z,5.67
2016-02-06T01:04:53.226Z,5.61
2016-02-06T01:05:53.153Z,5.64
2016-02-06T01:06:53.157Z,5.54
2016-02-06T01:07:53.144Z,5.57
2016-02-06T01:08:53.147Z,5.61
2016-02-06T01:09:53.166Z,5.6
2016-02-06T01:10:53.169Z,5.58
2016-02-06T01:11:53.139Z,5.56
2016-02-06T01:12:53.141Z,5.6
2016-02-06T01:13:53.145Z,5.68
2016-02-06T01:14:53.164Z,5.56
2016-02-06T01:15:53.136Z,5.63
2016-02-06T01:16:53.122Z,5.58
2016-02-06T01:17:53.130Z,5.51
2016-02-06T01:18:53.117Z,5.57
2016-02-06T01:19:53.151Z,5.56
2016-02-06T01:20:53.138Z,5.49
2016-02-06T01:21:53.110Z,5.53
2016-02-06T01:22:53.112Z,5.49
2016-02-06T01:23:53.115Z,5.53
2016-02-06T01:24:53.133Z,5.54
2016-02-06T01:25:53.104Z,5.54
2016-02-06T01:26:53.109Z,5.45
2016-02-06T01:27:53.096Z,5.48
2016-02-06T01:28:53.098Z,5.49
2016-02-06T01:29:53.117Z,5.42
2016-02-06T01:30:53.088Z,5.51
2016-02-06T01:31:53.091Z,5.43
2016-02-06T01:32:53.095Z,5.45
2016-02-06T01:33:53.105Z,5.45
2016-02-06T01:34:53.092Z,5.48
2016-02-06T01:35:53.079Z,5.42
2016-02-06T01:36:53.081Z,5.46
2016-02-06T01:37:53.100Z,5.45
2016-02-06T01:38:53.072Z,5.42
2016-02-06T01:39:53.075Z,5.43
2016-02-06T01:40:53.077Z,5.38
2016-02-06T01:41:53.095Z,5.39
2016-02-06T01:42:53.051Z,5.24
2016-02-06T01:43:53.070Z,5.39
2016-02-06T01:44:53.057Z,5.27
2016-02-06T01:45:53.044Z,5.3
2016-02-06T01:46:53.046Z,5.27
2016-02-06T01:47:53.065Z,5.3
2016-02-06T01:48:53.052Z,5.21
2016-02-06T01:49:53.039Z,5.21
2016-02-06T01:50:53.041Z,5.22
2016-02-06T01:51:53.044Z,5.18
2016-02-06T01:52:53.046Z,5.12
2016-02-06T01:53:53.034Z,5.15
2016-02-06T01:54:53.037Z,5.06
2016-02-06T01:55:53.055Z,5.04
2016-02-06T01:56:53.026Z,5.09
2016-02-06T01:57:53.029Z,5.02
2016-02-06T01:58:53.015Z,5.03
2016-02-06T01:59:53.019Z,4.99
2016-02-06T02:00:53.007Z,4.96
2016-02-06T02:01:53.025Z,4.94
2016-02-06T02:02:53.012Z,5.04
2016-02-06T02:03:53.000Z,4.89
2016-02-06T02:04:53.003Z,4.92
2016-02-06T02:05:53.053Z,5.02
2016-02-06T02:06:52.992Z,4.82
2016-02-06T02:07:52.261Z,4.84
2016-02-06T02:08:52.997Z,4.89
2016-02-06T02:09:53.001Z,4.88
2016-02-06T02:10:52.988Z,4.89
2016-02-06T02:11:52.975Z,4.85
2016-02-06T02:12:52.965Z,4.77
2016-02-06T02:13:52.968Z,4.84
2016-02-06T02:14:52.985Z,4.75
2016-02-06T02:15:52.973Z,4.72
2016-02-06T02:16:52.960Z,4.7
2016-02-06T02:17:52.962Z,4.69
2016-02-06T02:18:52.981Z,4.69
2016-02-06T02:19:52.952Z,4.65
2016-02-06T02:20:52.783Z,4.59
2016-02-06T02:21:52.942Z,4.63
2016-02-06T02:22:52.929Z,4.59
2016-02-06T02:23:52.931Z,4.54
2016-02-06T02:24:52.934Z,4.52
2016-02-06T02:25:52.942Z,4.55
2016-02-06T02:26:52.944Z,4.47
2016-02-06T02:27:52.931Z,4.45
2016-02-06T02:28:52.933Z,4.5
2016-02-06T02:29:52.936Z,4.5
2016-02-06T02:30:52.897Z,4.48
2016-02-06T02:31:52.917Z,4.42
2016-02-06T02:32:52.904Z,4.52
2016-02-06T02:33:52.904Z,4.44
2016-02-06T02:34:52.892Z,4.33
2016-02-06T02:35:52.909Z,4.45
2016-02-06T02:36:52.897Z,4.41
2016-02-06T02:37:52.883Z,4.36
2016-02-06T02:38:52.871Z,4.37
2016-02-06T02:39:52.874Z,4.37
2016-02-06T02:40:52.877Z,4.34
2016-02-06T02:41:52.865Z,4.34
2016-02-06T02:42:52.852Z,4.3
2016-02-06T02:43:52.870Z,4.34
2016-02-06T02:44:52.857Z,4.41
2016-02-06T02:45:52.845Z,4.32
2016-02-06T02:46:52.864Z,4.36
2016-02-06T02:47:52.851Z,4.34
2016-02-06T02:48:52.838Z,4.37
2016-02-06T02:49:52.840Z,4.29
2016-02-06T02:50:52.843Z,4.29
2016-02-06T02:51:52.815Z,4.27
2016-02-06T02:52:52.833Z,4.22
2016-02-06T02:53:52.835Z,4.23
2016-02-06T02:54:52.838Z,4.16
2016-02-06T02:55:52.840Z,4.23
2016-02-06T02:56:52.813Z,4.16
2016-02-06T02:57:52.643Z,4.2
2016-02-06T02:58:52.802Z,4.2
2016-02-06T02:59:52.805Z,4.15
2016-02-06T03:00:52.793Z,4.11
2016-02-06T03:01:52.780Z,4.16
2016-02-06T03:02:52.783Z,4.14
2016-02-06T03:03:52.806Z,4.11
2016-02-06T03:04:52.777Z,4.12
2016-02-06T03:05:52.795Z,4.12
2016-02-06T03:06:52.769Z,4.05
2016-02-06T03:07:52.772Z,4.04
2016-02-06T03:08:52.758Z,4.04
2016-02-06T03:09:52.761Z,4
2016-02-06T03:10:52.764Z,4.06
2016-02-06T03:11:52.751Z,4.06
2016-02-06T03:12:52.736Z,4.04
2016-02-06T03:13:52.723Z,4.02
2016-02-06T03:14:52.727Z,4.05
2016-02-06T03:15:52.746Z,4.11
2016-02-06T03:16:52.717Z,4.02
2016-02-06T03:17:52.721Z,4.02
2016-02-06T03:18:52.707Z,4.04
2016-02-06T03:19:52.712Z,3.94
2016-02-06T03:20:52.714Z,3.97
2016-02-06T03:21:52.701Z,3.94
2016-02-06T03:22:52.703Z,4.02
2016-02-06T03:23:52.692Z,3.94
2016-02-06T03:24:52.694Z,4
2016-02-06T03:25:52.697Z,3.97
2016-02-06T03:26:52.683Z,3.94
2016-02-06T03:27:52.671Z,3.93
2016-02-06T03:28:52.674Z,3.93
2016-02-06T03:29:52.693Z,3.96
2016-02-06T03:30:52.664Z,3.96
2016-02-06T03:31:52.651Z,3.98
2016-02-06T03:32:52.656Z,3.91
2016-02-06T03:33:52.643Z,3.93
2016-02-06T03:34:52.645Z,3.9
2016-02-06T03:35:52.649Z,3.96
2016-02-06T03:36:52.620Z,3.86
2016-02-06T03:37:52.624Z,3.87
2016-02-06T03:38:52.470Z,3.87
2016-02-06T03:39:52.628Z,3.94
2016-02-06T03:40:52.618Z,3.96
2016-02-06T03:41:52.621Z,3.93
2016-02-06T03:42:52.609Z,3.96
2016-02-06T03:43:52.612Z,3.87
2016-02-06T03:44:52.583Z,3.94
2016-02-06T03:45:52.601Z,3.83
2016-02-06T03:46:52.589Z,3.83
2016-02-06T03:47:52.575Z,3.83
2016-02-06T03:48:52.578Z,3.79
2016-02-06T03:49:52.581Z,3.83
2016-02-06T03:50:52.599Z,3.87
2016-02-06T03:51:52.555Z,3.8
2016-02-06T03:52:52.558Z,3.7
2016-02-06T03:53:52.547Z,3.7
2016-02-06T03:54:52.550Z,3.75
2016-02-06T03:55:52.569Z,3.73
2016-02-06T03:56:52.539Z,3.76
2016-02-06T03:57:52.542Z,3.76
2016-02-06T03:58:52.530Z,3.76
2016-02-06T03:59:52.532Z,3.7
2016-02-06T04:00:52.522Z,3.73
2016-02-06T04:01:52.512Z,3.69
2016-02-06T04:02:52.530Z,3.7
2016-02-06T04:03:52.517Z,3.69
2016-02-06T04:04:52.505Z,3.73
2016-02-06T04:05:52.510Z,3.73
2016-02-06T04:06:52.497Z,3.7
2016-02-06T04:07:52.500Z,3.6
2016-02-06T04:08:52.487Z,3.62
2016-02-06T04:09:52.489Z,3.62
2016-02-06T04:10:52.477Z,3.68
2016-02-06T04:11:52.620Z,3.62
2016-02-06T04:12:52.467Z,3.6
2016-02-06T04:13:52.456Z,3.55
2016-02-06T04:14:52.459Z,3.58
2016-02-06T04:15:52.461Z,3.57
2016-02-06T04:16:52.464Z,3.57
2016-02-06T04:17:52.451Z,3.55
2016-02-06T04:18:52.441Z,3.65
2016-02-06T04:19:52.443Z,3.55
2016-02-06T04:20:52.431Z,3.54
2016-02-06T04:21:52.435Z,3.61
2016-02-06T04:22:52.422Z,3.57
2016-02-06T04:23:52.455Z,3.54
2016-02-06T04:24:52.412Z,3.52
2016-02-06T04:25:52.399Z,3.55
2016-02-06T04:26:52.402Z,3.5
2016-02-06T04:27:52.404Z,3.48
2016-02-06T04:28:52.407Z,3.52
2016-02-06T04:29:51.662Z,3.52
2016-02-06T04:30:52.399Z,3.48
2016-02-06T04:31:52.370Z,3.45
2016-02-06T04:32:52.373Z,3.51
2016-02-06T04:33:52.360Z,3.43
2016-02-06T04:34:52.363Z,3.43
2016-02-06T04:35:52.365Z,3.48
2016-02-06T04:36:52.352Z,3.45
2016-02-06T04:37:52.354Z,3.48
2016-02-06T04:38:52.343Z,3.4
2016-02-06T04:39:52.346Z,3.4
2016-02-06T04:40:52.333Z,3.4
2016-02-06T04:41:52.335Z,3.47
2016-02-06T04:42:52.323Z,3.32
2016-02-06T04:43:52.326Z,3.36
2016-02-06T04:44:52.329Z,3.36
2016-02-06T04:45:52.315Z,3.36
2016-02-06T04:46:52.334Z,3.31
2016-02-06T04:47:52.305Z,3.32
2016-02-06T04:48:52.308Z,3.39
2016-02-06T04:49:52.296Z,3.31
2016-02-06T04:50:52.283Z,3.31
2016-02-06T04:51:52.301Z,3.39
2016-02-06T04:52:52.274Z,3.36
2016-02-06T04:53:52.277Z,3.45
2016-02-06T04:54:52.267Z,3.36
2016-02-06T04:55:52.285Z,3.35
2016-02-06T04:56:52.257Z,3.31
2016-02-06T04:57:52.259Z,3.39
2016-02-06T04:58:52.242Z,3.35
2016-02-06T04:59:52.245Z,3.39
2016-02-06T05:00:52.248Z,3.36
2016-02-06T05:01:52.234Z,3.4
2016-02-06T05:02:52.221Z,3.39
2016-02-06T05:03:52.223Z,3.35
2016-02-06T05:04:52.227Z,3.42
2016-02-06T05:05:52.214Z,3.29
2016-02-06T05:06:52.201Z,3.39
2016-02-06T05:07:52.221Z,3.42
2016-02-06T05:08:52.192Z,3.32
2016-02-06T05:09:52.194Z,3.36
2016-02-06T05:10:52.183Z,3.33
2016-02-06T05:11:52.185Z,3.35
2016-02-06T05:12:52.173Z,3.35
2016-02-06T05:13:52.175Z,3.35
2016-02-06T05:14:52.162Z,3.43
2016-02-06T05:15:52.165Z,3.35
2016-02-06T05:16:52.168Z,3.35
2016-02-06T05:17:52.186Z,3.31
2016-02-06T05:18:52.142Z,3.32
2016-02-06T05:19:51.988Z,3.33
2016-02-06T05:20:52.133Z,3.36
2016-02-06T05:21:52.136Z,3.35
2016-02-06T05:22:52.122Z,3.39
2016-02-06T05:23:52.125Z,3.36
2016-02-06T05:24:52.112Z,3.39
2016-02-06T05:25:52.103Z,3.28
2016-02-06T05:26:52.106Z,3.36
2016-02-06T05:27:52.092Z,3.35
2016-02-06T05:28:51.934Z,3.36
2016-02-06T05:29:52.093Z,3.32
2016-02-06T05:30:52.081Z,3.33
2016-02-06T05:31:52.083Z,3.35
2016-02-06T05:32:52.085Z,3.29
2016-02-06T05:33:52.075Z,3.18
2016-02-06T05:34:52.078Z,3.26
2016-02-06T05:35:52.065Z,3.31
2016-02-06T05:36:52.053Z,3.24
2016-02-06T05:37:52.055Z,3.24
2016-02-06T05:38:52.041Z,3.23
2016-02-06T05:39:52.044Z,3.24
2016-02-06T05:40:52.032Z,3.24
2016-02-06T05:41:52.037Z,3.24
2016-02-06T05:42:52.039Z,3.17
2016-02-06T05:43:52.027Z,3.2
2016-02-06T05:44:52.014Z,3.17
2016-02-06T05:45:52.001Z,3.18
2016-02-06T05:46:52.020Z,3.18
2016-02-06T05:47:51.992Z,3.18
2016-02-06T05:48:51.996Z,3.21
2016-02-06T05:49:51.998Z,3.17
2016-02-06T05:50:51.985Z,3.17
2016-02-06T05:51:51.988Z,3.2
2016-02-06T05:52:51.974Z,3.23
2016-02-06T05:53:51.995Z,3.13
2016-02-06T05:54:51.967Z,3.21
2016-02-06T05:55:51.984Z,3.14
2016-02-06T05:56:51.956Z,3.21
2016-02-06T05:57:51.959Z,3.17
2016-02-06T05:58:51.942Z,3.15
2016-02-06T05:59:52.103Z,3.1
2016-02-06T06:00:51.950Z,3.2
2016-02-06T06:01:52.033Z,3.15
2016-02-06T06:02:51.925Z,3.11
2016-02-06T06:03:51.850Z,3.11
2016-02-06T06:04:51.915Z,3.18
2016-02-06T06:05:51.933Z,3.17
2016-02-06T06:06:51.921Z,3.23
2016-02-06T06:07:51.971Z,3.13
2016-02-06T06:08:52.004Z,3.14
2016-02-06T06:09:52.116Z,3.15
2016-02-06T06:10:51.884Z,3.13
2016-02-06T06:11:52.215Z,3.14
2016-02-06T06:12:52.062Z,3.15
2016-02-06T06:13:55.440Z,3.17
2016-02-06T06:14:58.270Z,3.17
2016-02-06T06:15:51.867Z,3.2
2016-02-06T06:16:54.634Z,3.17
2016-02-06T06:17:51.857Z,3.24
2016-02-06T06:18:51.843Z,3.23
2016-02-06T06:19:51.834Z,3.31
2016-02-06T06:20:55.398Z,3.35
2016-02-06T06:21:52.668Z,3.32
2016-02-06T06:22:52.671Z,3.39
2016-02-06T06:23:53.877Z,3.28
2016-02-06T06:24:51.816Z,3.39
2016-02-06T06:25:51.819Z,3.39
2016-02-06T06:26:51.807Z,3.39
2016-02-06T06:27:51.829Z,3.39
2016-02-06T06:28:51.784Z,3.35
2016-02-06T06:29:51.979Z,3.48
2016-02-06T06:30:51.793Z,3.39
2016-02-06T06:31:51.796Z,3.45
2016-02-06T06:32:51.768Z,3.48
2016-02-06T06:33:51.771Z,3.54
2016-02-06T06:34:51.757Z,3.45
2016-02-06T06:35:51.760Z,3.42
2016-02-06T06:36:51.762Z,3.51
2016-02-06T06:37:51.781Z,3.48
2016-02-06T06:38:51.768Z,3.52
2016-02-06T06:39:51.740Z,3.5
2016-02-06T06:40:51.727Z,3.52
2016-02-06T06:41:51.746Z,3.52
2016-02-06T06:42:51.733Z,3.5
2016-02-06T06:43:51.721Z,3.52
2016-02-06T06:44:51.707Z,3.55
2016-02-06T06:45:51.741Z,3.51
2016-02-06T06:46:51.697Z,3.47
2016-02-06T06:47:51.688Z,3.51
2016-02-06T06:48:51.894Z,3.5
2016-02-06T06:49:51.708Z,3.5
2016-02-06T06:50:51.696Z,3.52
2016-02-06T06:51:51.669Z,3.54
2016-02-06T06:52:51.671Z,3.61
2016-02-06T06:53:51.659Z,3.6
2016-02-06T06:54:51.661Z,3.66
2016-02-06T06:55:51.665Z,3.55
2016-02-06T06:56:51.652Z,3.51
2016-02-06T06:57:51.655Z,3.6
2016-02-06T06:58:51.657Z,3.52
2016-02-06T06:59:51.645Z,3.61
2016-02-06T07:00:51.626Z,3.55
2016-02-06T07:01:51.629Z,3.6
2016-02-06T07:02:51.617Z,3.68
2016-02-06T07:03:51.622Z,3.61
2016-02-06T07:04:51.608Z,3.66
2016-02-06T07:05:51.611Z,3.72
2016-02-06T07:06:51.597Z,3.78
2016-02-06T07:07:51.601Z,3.76
2016-02-06T07:08:51.589Z,3.72
2016-02-06T07:09:51.592Z,3.76
2016-02-06T07:10:51.578Z,3.73
2016-02-06T07:11:51.581Z,3.69
2016-02-06T07:12:51.646Z,3.79
2016-02-06T07:13:51.572Z,3.76
2016-02-06T07:14:51.574Z,3.8
2016-02-06T07:15:51.561Z,3.87
2016-02-06T07:16:51.564Z,3.87
2016-02-06T07:17:51.551Z,3.9
2016-02-06T07:18:51.538Z,3.97
2016-02-06T07:19:51.541Z,4.02
2016-02-06T07:20:51.528Z,4.04
2016-02-06T07:21:51.547Z,4.05
2016-02-06T07:22:51.534Z,4.06
2016-02-06T07:23:51.538Z,4.05
2016-02-06T07:24:51.524Z,4.2
2016-02-06T07:25:51.512Z,4.15
2016-02-06T07:26:51.518Z,4.14
2016-02-06T07:27:51.504Z,4.26
2016-02-06T07:28:53.257Z,4.3
2016-02-06T07:29:56.277Z,4.37
2016-02-06T07:30:52.248Z,4.4
2016-02-06T07:31:52.219Z,4.3
2016-02-06T07:32:51.491Z,4.36
2016-02-06T07:33:52.166Z,4.45
2016-02-06T07:34:51.607Z,4.45
2016-02-06T07:35:51.579Z,4.5
2016-02-06T07:36:51.612Z,4.45
2016-02-06T07:37:51.834Z,4.54
2016-02-06T07:38:51.665Z,4.58
2016-02-06T07:39:51.573Z,4.69
2016-02-06T07:40:51.623Z,4.7
2016-02-06T07:41:51.548Z,4.72
2016-02-06T07:42:51.706Z,4.75
2016-02-06T07:43:51.443Z,4.77
2016-02-06T07:44:51.622Z,4.8
2016-02-06T07:45:51.702Z,4.8
2016-02-06T07:46:51.643Z,4.92
2016-02-06T07:47:51.615Z,4.96
2016-02-06T07:48:51.617Z,4.99
2016-02-06T07:49:51.529Z,4.99
2016-02-06T07:50:51.532Z,4.99
2016-02-06T07:51:51.583Z,5.02
2016-02-06T07:52:51.382Z,5.02
2016-02-06T07:53:51.352Z,5.15
2016-02-06T07:54:51.356Z,5.21
2016-02-06T07:55:51.217Z,5.24
2016-02-06T07:56:51.961Z,5.28
2016-02-06T07:57:51.442Z,5.27
2016-02-06T07:58:51.657Z,5.33
2016-02-06T07:59:51.560Z,5.4
2016-02-06T08:00:51.482Z,5.36
2016-02-06T08:01:51.310Z,5.46
2016-02-06T08:02:51.406Z,5.38
2016-02-06T08:03:51.376Z,5.45
2016-02-06T08:04:51.503Z,5.51
2016-02-06T08:05:51.254Z,5.51
2016-02-06T08:06:51.334Z,5.6
2016-02-06T08:07:51.478Z,5.58
2016-02-06T08:08:51.339Z,5.57
2016-02-06T08:09:51.357Z,5.68
2016-02-06T08:10:51.312Z,5.65
2016-02-06T08:11:51.392Z,5.75
2016-02-06T08:12:51.426Z,5.72
2016-02-06T08:13:51.319Z,5.75
2016-02-06T08:14:51.290Z,5.81
2016-02-06T08:15:51.371Z,5.86
2016-02-06T08:16:51.357Z,5.81
2016-02-06T08:17:51.251Z,5.82
2016-02-06T08:18:51.253Z,5.97
2016-02-06T08:19:52.248Z,5.93
2016-02-06T08:20:50.973Z,5.97
2016-02-06T08:21:51.543Z,6.01
2016-02-06T08:22:51.672Z,6.06
2016-02-06T08:23:51.597Z,6.06
2016-02-06T08:24:51.365Z,6.15
2016-02-06T08:25:51.572Z,6.09
2016-02-06T08:26:51.261Z,6.18
2016-02-06T08:27:51.139Z,6.18
2016-02-06T08:28:51.251Z,6.22
2016-02-06T08:29:51.519Z,6.21
2016-02-06T08:30:51.241Z,6.15
2016-02-06T08:31:51.244Z,6.18
2016-02-06T08:32:51.361Z,6.19
2016-02-06T08:33:51.238Z,6.34
2016-02-06T08:34:51.586Z,6.38
2016-02-06T08:35:51.183Z,6.46
2016-02-06T08:36:51.154Z,6.43
2016-02-06T08:37:51.157Z,6.44
2016-02-06T08:38:51.831Z,6.51
2016-02-06T08:39:51.724Z,6.54
2016-02-06T08:40:51.290Z,6.61
2016-02-06T08:41:51.255Z,6.52
2016-02-06T08:42:51.288Z,6.64
2016-02-06T08:43:51.337Z,6.62
2016-02-06T08:44:51.215Z,6.73
2016-02-06T08:45:51.344Z,6.67
2016-02-06T08:46:51.270Z,6.8
2016-02-06T08:47:51.211Z,6.84
2016-02-06T08:48:51.260Z,6.84
2016-02-06T08:49:51.263Z,6.8
2016-02-06T08:50:51.406Z,6.88
2016-02-06T08:51:51.410Z,6.91
2016-02-06T08:52:51.195Z,6.89
2016-02-06T08:53:51.338Z,6.92
2016-02-06T08:54:51.343Z,6.94
2016-02-06T08:55:51.143Z,6.97
2016-02-06T08:56:51.131Z,6.98
2016-02-06T08:57:51.133Z,6.91
2016-02-06T08:58:51.604Z,7.07
2016-02-06T08:59:51.139Z,7.06
2016-02-06T09:00:51.125Z,7.03
2016-02-06T09:01:51.133Z,7.13
2016-02-06T09:02:51.198Z,7.15
2016-02-06T09:03:51.122Z,7.13
2016-02-06T09:04:51.135Z,7.17
2016-02-06T09:05:51.122Z,7.09
2016-02-06T09:06:51.313Z,7.2
2016-02-06T09:07:51.175Z,7.21
2016-02-06T09:08:51.194Z,7.21
2016-02-06T09:09:51.448Z,7.2
2016-02-06T09:10:51.123Z,7.23
2016-02-06T09:11:51.375Z,7.28
2016-02-06T09:12:51.174Z,7.25
2016-02-06T09:13:51.286Z,7.21
2016-02-06T09:14:51.274Z,7.34
2016-02-06T09:15:51.229Z,7.24
2016-02-06T09:16:51.358Z,7.34
2016-02-06T09:17:51.189Z,7.3
2016-02-06T09:18:51.191Z,7.37
2016-02-06T09:19:51.272Z,7.37
2016-02-06T09:20:51.313Z,7.35
2016-02-06T09:21:51.299Z,7.4
2016-02-06T09:22:51.349Z,7.37
2016-02-06T09:23:51.352Z,7.4
2016-02-06T09:24:51.277Z,7.34
2016-02-06T09:25:51.342Z,7.39
2016-02-06T09:26:51.252Z,7.46
2016-02-06T09:27:51.098Z,7.4
2016-02-06T09:29:05.195Z,7.49
2016-02-06T09:29:51.089Z,7.49
2016-02-06T09:30:51.107Z,7.6
2016-02-06T09:31:51.953Z,7.55
2016-02-06T09:32:51.863Z,7.58
2016-02-06T09:33:51.209Z,7.57
2016-02-06T09:34:51.149Z,7.58
2016-02-06T09:35:51.169Z,7.61
2016-02-06T09:36:51.280Z,7.69
2016-02-06T09:37:51.237Z,7.69
2016-02-06T09:38:51.255Z,7.72
2016-02-06T09:39:51.210Z,7.86
2016-02-06T09:40:51.230Z,7.85
2016-02-06T09:41:51.248Z,7.9
2016-02-06T09:42:51.266Z,7.83
2016-02-06T09:43:51.317Z,7.86
2016-02-06T09:44:51.320Z,8.08
2016-02-06T09:45:51.244Z,7.98
2016-02-06T09:46:51.153Z,8.07
2016-02-06T09:47:51.281Z,8.1
2016-02-06T09:48:51.159Z,8.15
2016-02-06T09:49:51.192Z,8.1
2016-02-06T09:50:51.242Z,8.16
2016-02-06T09:51:51.245Z,8.29
2016-02-06T09:52:51.359Z,8.26
2016-02-06T09:53:51.126Z,8.29
2016-02-06T09:54:51.395Z,8.36
2016-02-06T09:55:51.272Z,8.37
2016-02-06T09:56:51.150Z,8.43
2016-02-06T09:57:51.247Z,8.4
2016-02-06T09:58:51.217Z,8.41
2016-02-06T09:59:51.220Z,8.45
2016-02-06T10:00:51.286Z,8.53
2016-02-06T10:01:51.210Z,8.56
2016-02-06T10:02:51.142Z,8.59
2016-02-06T10:03:51.269Z,8.71
2016-02-06T10:04:51.163Z,8.76
2016-02-06T10:05:51.041Z,8.76
2016-02-06T10:06:51.231Z,8.81
2016-02-06T10:07:51.093Z,8.76
2016-02-06T10:08:51.127Z,8.92
2016-02-06T10:09:51.365Z,8.92
2016-02-06T10:10:51.399Z,9.04
2016-02-06T10:11:51.120Z,8.95
2016-02-06T10:12:51.107Z,9.14
2016-02-06T10:13:51.094Z,9.14
2016-02-06T10:14:51.864Z,9.23
2016-02-06T10:15:51.616Z,9.21
2016-02-06T10:16:51.309Z,9.26
2016-02-06T10:17:51.281Z,9.32
2016-02-06T10:18:51.237Z,9.35
2016-02-06T10:19:51.255Z,9.46
2016-02-06T10:20:51.226Z,9.42
2016-02-06T10:21:51.385Z,9.5
2016-02-06T10:22:51.174Z,9.56
2016-02-06T10:23:51.207Z,9.53
2016-02-06T10:24:51.132Z,9.61
2016-02-06T10:25:51.290Z,9.69
2016-02-06T10:26:51.527Z,9.72
2016-02-06T10:27:51.281Z,9.76
2016-02-06T10:28:51.268Z,9.76
2016-02-06T10:29:51.177Z,9.79
2016-02-06T10:30:51.352Z,9.79
2016-02-06T10:31:51.278Z,9.79
2016-02-06T10:32:51.452Z,9.89
2016-02-06T10:33:51.330Z,9.83
2016-02-06T10:34:51.442Z,9.93
2016-02-06T10:35:51.320Z,9.96
2016-02-06T10:36:51.230Z,9.99
2016-02-06T10:37:51.326Z,10.02
2016-02-06T10:38:51.328Z,9.99
2016-02-06T10:39:51.347Z,10.01
2016-02-06T10:40:51.427Z,10.09
2016-02-06T10:41:51.383Z,9.99
2016-02-06T10:42:51.278Z,10.02
2016-02-06T10:43:51.359Z,10.08
2016-02-06T10:44:51.267Z,10.15
2016-02-06T10:45:51.348Z,10.07
2016-02-06T10:46:51.538Z,10.14
2016-02-06T10:47:51.326Z,10.07
2016-02-06T10:48:51.377Z,10.11
2016-02-06T10:49:51.332Z,10.07
2016-02-06T10:50:51.241Z,10.11
2016-02-06T10:51:51.354Z,10.11
2016-02-06T10:52:50.731Z,10.12
2016-02-06T10:53:51.453Z,10.09
2016-02-06T10:54:51.190Z,10.11
2016-02-06T10:55:51.194Z,10.18
2016-02-06T10:56:51.196Z,10.2
2016-02-06T10:57:51.746Z,10.22
2016-02-06T10:58:51.811Z,10.23
2016-02-06T10:59:51.193Z,10.34
2016-02-06T11:00:51.211Z,10.26
2016-02-06T11:01:51.214Z,10.32
2016-02-06T11:02:51.217Z,10.41
2016-02-06T11:03:51.221Z,10.33
2016-02-06T11:04:51.223Z,10.36
2016-02-06T11:05:51.210Z,10.41
2016-02-06T11:06:51.228Z,10.36
2016-02-06T11:07:51.231Z,10.38
2016-02-06T11:08:51.236Z,10.36
2016-02-06T11:09:51.224Z,10.36
2016-02-06T11:10:51.241Z,10.45
2016-02-06T11:11:51.230Z,10.44
2016-02-06T11:12:51.247Z,10.34
2016-02-06T11:13:51.235Z,10.47
2016-02-06T11:14:51.253Z,10.45
2016-02-06T11:15:51.241Z,10.42
2016-02-06T11:16:51.258Z,10.47
2016-02-06T11:17:51.261Z,10.61
2016-02-06T11:18:51.263Z,10.45
2016-02-06T11:19:51.267Z,10.61
2016-02-06T11:20:51.285Z,10.55
2016-02-06T11:21:51.272Z,10.55
2016-02-06T11:22:51.274Z,10.63
2016-02-06T11:23:51.277Z,10.61
2016-02-06T11:24:51.297Z,10.61
2016-02-06T11:25:51.284Z,10.67
2016-02-06T11:26:51.318Z,10.7
2016-02-06T11:27:51.301Z,10.67
2016-02-06T11:28:51.319Z,10.68
2016-02-06T11:29:51.310Z,10.67
2016-02-06T11:30:51.328Z,10.78
2016-02-06T11:31:51.299Z,10.82
2016-02-06T11:32:51.333Z,10.73
2016-02-06T11:33:51.304Z,10.78
2016-02-06T11:34:51.340Z,10.79
2016-02-06T11:35:51.514Z,10.73
2016-02-06T11:36:51.349Z,10.86
2016-02-06T11:37:51.335Z,10.85
2016-02-06T11:38:51.339Z,10.85
2016-02-06T11:39:51.201Z,10.89
2016-02-06T11:40:51.344Z,10.91
2016-02-06T11:41:51.347Z,10.94
2016-02-06T11:42:51.349Z,10.84
2016-02-06T11:43:51.352Z,10.97
2016-02-06T11:44:51.355Z,10.86
2016-02-06T11:45:51.358Z,10.89
2016-02-06T11:46:51.360Z,10.92
2016-02-06T11:47:51.362Z,10.94
2016-02-06T11:48:51.382Z,10.91
2016-02-06T11:49:51.369Z,10.92
2016-02-06T11:50:51.372Z,10.92
2016-02-06T11:51:51.375Z,10.99
2016-02-06T11:52:51.377Z,10.94
2016-02-06T11:53:51.380Z,10.92
2016-02-06T11:54:51.680Z,11.02
2016-02-06T11:55:51.432Z,10.91
2016-02-06T11:56:51.404Z,10.99
2016-02-06T11:57:51.797Z,10.94
2016-02-06T11:58:51.410Z,10.92
2016-02-06T11:59:51.460Z,11
2016-02-06T12:00:51.417Z,11.03
2016-02-06T12:01:51.450Z,11.02
2016-02-06T12:02:51.422Z,10.94
2016-02-06T12:03:51.425Z,11
2016-02-06T12:04:50.678Z,11.07
2016-02-06T12:05:51.446Z,11.04
2016-02-06T12:06:51.433Z,11.03
2016-02-06T12:07:51.482Z,11.02
2016-02-06T12:08:51.439Z,11.04
2016-02-06T12:09:51.458Z,11.04
2016-02-06T12:10:51.464Z,10.99
2016-02-06T12:11:51.482Z,10.99
2016-02-06T12:12:51.453Z,11.1
2016-02-06T12:13:51.471Z,11.1
2016-02-06T12:14:51.474Z,11.03
2016-02-06T12:15:51.498Z,11.04
2016-02-06T12:16:51.485Z,10.99
2016-02-06T12:17:51.487Z,11.02
2016-02-06T12:18:51.491Z,11.14
2016-02-06T12:19:51.494Z,11.02
2016-02-06T12:20:51.497Z,11.06
2016-02-06T12:21:51.593Z,11.04
2016-02-06T12:22:51.377Z,11.03
2016-02-06T12:23:51.506Z,11.07
2016-02-06T12:24:51.510Z,10.97
2016-02-06T12:25:51.512Z,11.11
2016-02-06T12:26:51.515Z,11.03
2016-02-06T12:27:51.517Z,11.02
2016-02-06T12:28:51.522Z,11.04
2016-02-06T12:29:51.556Z,10.97
2016-02-06T12:30:51.542Z,11.04
2016-02-06T12:31:51.562Z,11.1
2016-02-06T12:32:51.581Z,11.03
2016-02-06T12:33:51.598Z,11.02
2016-02-06T12:34:51.554Z,11.14
2016-02-06T12:35:51.603Z,11.11
2016-02-06T12:36:51.593Z,11.18
2016-02-06T12:37:51.579Z,11.18
2016-02-06T12:38:51.566Z,11.28
2016-02-06T12:39:51.584Z,11.27
2016-02-06T12:40:51.572Z,11.32
2016-02-06T12:41:51.590Z,11.37
2016-02-06T12:42:51.577Z,11.33
2016-02-06T12:43:51.595Z,11.49
2016-02-06T12:44:51.598Z,11.4
2016-02-06T12:45:51.617Z,11.49
2016-02-06T12:46:51.603Z,11.6
2016-02-06T12:47:51.622Z,11.58
2016-02-06T12:48:51.609Z,11.52
2016-02-06T12:49:51.628Z,11.52
2016-02-06T12:50:51.600Z,11.62
2016-02-06T12:51:51.665Z,11.52
2016-02-06T12:52:51.622Z,11.69
2016-02-06T12:53:51.656Z,11.58
2016-02-06T12:54:51.644Z,11.64
2016-02-06T12:55:51.678Z,11.69
2016-02-06T12:56:51.650Z,11.69
2016-02-06T12:57:51.654Z,11.7
2016-02-06T12:58:51.672Z,11.62
2016-02-06T12:59:51.662Z,11.72
2016-02-06T13:00:51.696Z,11.69
2016-02-06T13:01:51.699Z,11.65
2016-02-06T13:02:51.670Z,11.69
2016-02-06T13:03:51.672Z,11.65
2016-02-06T13:04:51.692Z,11.7
2016-02-06T13:05:51.711Z,11.65
2016-02-06T13:06:51.728Z,11.61
2016-02-06T13:07:51.700Z,11.7
2016-02-06T13:08:51.703Z,11.69
2016-02-06T13:09:51.706Z,11.73
2016-02-06T13:10:51.742Z,11.65
2016-02-06T13:11:51.714Z,11.6
2016-02-06T13:12:51.732Z,11.73
2016-02-06T13:13:51.735Z,11.72
2016-02-06T13:14:51.722Z,11.64
2016-02-06T13:15:51.741Z,11.55
2016-02-06T13:16:51.758Z,11.51